Terminal Aerodrome Forecast
Issued by NWS

Home | Current Version | Previous Version | Text Only | Print | Product List | Glossary On
Versions: 1 2 3 4 5 6 7 8 9 10 11 12 13 14 15 16 17 18 19
000
FTUS42 KTAE 180211 AAA
TAFDHN
TAF AMD
KDHN 180211Z 1802/1824 05007KT P6SM SCT015 BKN040
     FM180300 VRB03KT P6SM OVC009
     FM180600 VRB03KT 2SM BR OVC004
     FM181400 25006KT P6SM OVC015
     FM181900 24007KT P6SM OVC050=

USA.gov is the U.S. government's official web portal to all federal, state and local government web resources and services.